createdAt,value
2023-03-29T00:00:07.692Z,1.06
2023-03-29T00:02:37.174Z,1.16
2023-03-29T00:05:06.177Z,1.17
2023-03-29T00:07:33.900Z,1.17
2023-03-29T00:10:04.628Z,1.18
2023-03-29T00:12:33.439Z,1.23
2023-03-29T00:15:01.034Z,1.25
2023-03-29T00:17:30.557Z,1.22
2023-03-29T00:19:59.865Z,1.22
2023-03-29T00:22:33.820Z,1.23
2023-03-29T00:25:02.728Z,1.22
2023-03-29T00:27:30.630Z,1.19
2023-03-29T00:30:00.524Z,1.23
2023-03-29T00:32:28.450Z,1.21
2023-03-29T00:34:56.126Z,1.12
2023-03-29T00:37:25.143Z,1.10
2023-03-29T00:39:54.120Z,1.08
2023-03-29T00:42:22.134Z,1.13
2023-03-29T00:44:59.504Z,1.07
2023-03-29T00:47:32.511Z,1.08
2023-03-29T00:50:04.886Z,1.07
2023-03-29T00:52:35.629Z,1.10
2023-03-29T00:55:11.843Z,1.06
2023-03-29T00:57:40.684Z,1.06
2023-03-29T01:00:13.139Z,1.03
2023-03-29T01:02:43.546Z,1.06
2023-03-29T01:05:15.701Z,1.00
2023-03-29T01:07:49.911Z,1.00
2023-03-29T01:10:25.465Z,1.03
2023-03-29T01:12:58.165Z,0.98
2023-03-29T01:15:27.774Z,0.92
2023-03-29T01:17:56.740Z,0.99
2023-03-29T01:20:35.587Z,1.05
2023-03-29T01:23:21.243Z,0.98
2023-03-29T01:26:00.857Z,0.94
2023-03-29T01:28:34.240Z,0.93
2023-03-29T01:31:05.745Z,0.85
2023-03-29T01:33:38.733Z,0.99
2023-03-29T01:36:14.227Z,0.95
2023-03-29T01:38:46.609Z,0.89
2023-03-29T01:41:14.842Z,0.87
2023-03-29T01:43:48.781Z,0.91
2023-03-29T01:46:26.954Z,0.92
2023-03-29T01:48:59.739Z,0.92
2023-03-29T01:51:35.247Z,0.85
2023-03-29T01:54:07.395Z,0.85
2023-03-29T01:56:40.698Z,0.78
2023-03-29T01:59:14.044Z,0.87
2023-03-29T02:01:47.454Z,0.71
2023-03-29T02:04:20.060Z,0.79
2023-03-29T02:06:53.273Z,0.71
2023-03-29T02:09:22.322Z,0.73
2023-03-29T02:11:51.479Z,0.68
2023-03-29T02:14:25.593Z,0.66
2023-03-29T02:16:53.442Z,0.66
2023-03-29T02:19:22.851Z,0.68
2023-03-29T02:21:59.850Z,0.67
2023-03-29T02:24:30.495Z,0.64
2023-03-29T02:26:59.914Z,0.61
2023-03-29T02:29:30.249Z,0.65
2023-03-29T02:32:03.277Z,0.54
2023-03-29T02:34:34.599Z,0.60
2023-03-29T02:37:06.458Z,0.56
2023-03-29T02:39:37.946Z,0.53
2023-03-29T02:42:07.491Z,0.55
2023-03-29T02:44:39.800Z,0.51
2023-03-29T02:47:13.855Z,0.48
2023-03-29T02:49:41.636Z,0.54
2023-03-29T02:52:14.472Z,0.53
2023-03-29T02:54:43.775Z,0.35
2023-03-29T02:57:11.824Z,0.43
2023-03-29T10:59:30.357Z,7.29
2023-03-29T11:02:33.264Z,7.56
2023-03-29T11:05:16.312Z,7.64
2023-03-29T11:07:59.803Z,7.02
2023-03-29T11:10:37.852Z,7.09
2023-03-29T11:13:14.671Z,6.64
2023-03-29T11:15:55.607Z,6.44
2023-03-29T11:18:43.285Z,6.62
2023-03-29T11:21:21.132Z,6.75
2023-03-29T11:23:57.918Z,6.60
2023-03-29T11:26:30.235Z,6.38
2023-03-29T11:29:06.856Z,6.69
2023-03-29T11:31:48.230Z,6.18
2023-03-29T11:34:28.811Z,6.39
2023-03-29T11:37:03.520Z,6.77
2023-03-29T11:39:45.054Z,6.62
2023-03-29T11:42:18.685Z,6.21
2023-03-29T11:44:53.408Z,6.45
2023-03-29T11:47:28.006Z,6.17
2023-03-29T11:49:58.461Z,5.80
2023-03-29T11:52:30.449Z,6.17
2023-03-29T11:55:03.111Z,6.10
2023-03-29T11:57:37.363Z,6.14
2023-03-29T12:00:10.835Z,6.27
2023-03-29T12:02:44.794Z,6.22
2023-03-29T12:05:20.114Z,6.28
2023-03-29T12:07:53.763Z,6.43
2023-03-29T12:10:23.166Z,6.41
2023-03-29T12:12:58.611Z,5.98
2023-03-29T12:15:29.613Z,6.00
2023-03-29T12:18:06.021Z,5.79
2023-03-29T12:20:39.010Z,5.96
2023-03-29T12:23:10.822Z,5.83
2023-03-29T12:25:48.976Z,5.65
2023-03-29T12:29:08.889Z,5.64
2023-03-29T12:31:44.699Z,5.55
2023-03-29T12:34:28.473Z,5.51
2023-03-29T12:37:10.655Z,5.48
2023-03-29T12:39:39.492Z,5.43
2023-03-29T12:42:16.501Z,5.39
2023-03-29T12:44:49.337Z,5.00
2023-03-29T12:47:21.192Z,5.07
2023-03-29T12:49:53.973Z,4.92
2023-03-29T12:52:27.303Z,5.23
2023-03-29T12:54:56.736Z,5.34
2023-03-29T12:57:28.461Z,5.48
2023-03-29T12:59:55.902Z,5.48
2023-03-29T13:02:35.756Z,5.09
2023-03-29T13:05:29.059Z,5.03
2023-03-29T13:07:56.836Z,5.05
2023-03-29T13:10:51.909Z,5.16
2023-03-29T13:13:26.919Z,5.26
2023-03-29T13:15:54.927Z,5.32
2023-03-29T13:18:43.597Z,5.40
2023-03-29T13:21:20.868Z,5.20
2023-03-29T13:23:56.613Z,5.07
2023-03-29T13:26:37.313Z,4.90
2023-03-29T13:29:22.451Z,5.04
2023-03-29T13:31:58.637Z,4.96
2023-03-29T13:34:36.953Z,4.93
2023-03-29T13:37:22.911Z,4.52
2023-03-29T13:39:52.475Z,4.53
2023-03-29T13:42:26.023Z,4.54
2023-03-29T13:45:04.835Z,4.50
2023-03-29T13:47:48.930Z,4.54
2023-03-29T13:50:35.620Z,4.58
2023-03-29T13:53:12.468Z,4.67
2023-03-29T13:55:46.119Z,4.65
2023-03-29T13:58:30.369Z,4.56
2023-03-29T14:01:06.788Z,4.47
2023-03-29T14:03:43.130Z,4.49
2023-03-29T14:06:14.070Z,4.41
2023-03-29T14:08:47.802Z,4.38
2023-03-29T14:11:22.064Z,4.43
2023-03-29T14:13:52.584Z,4.52
2023-03-29T14:16:20.794Z,4.71
2023-03-29T14:18:50.756Z,4.60
2023-03-29T14:21:20.794Z,4.56
2023-03-29T14:23:56.169Z,4.43
2023-03-29T14:26:29.265Z,4.43
2023-03-29T14:28:58.711Z,4.46
2023-03-29T14:31:30.243Z,4.32
2023-03-29T14:34:00.325Z,4.37
2023-03-29T14:36:31.038Z,4.45
2023-03-29T14:39:04.238Z,4.53
2023-03-29T14:41:34.506Z,4.61
2023-03-29T14:44:03.306Z,4.50
2023-03-29T14:46:31.628Z,4.48
2023-03-29T14:49:01.850Z,4.44
2023-03-29T14:51:29.743Z,4.44
2023-03-29T14:53:59.082Z,4.47
2023-03-29T14:56:29.118Z,4.38
2023-03-29T14:58:57.556Z,4.25
2023-03-29T15:01:26.717Z,4.09
2023-03-29T15:03:57.051Z,4.01
2023-03-29T15:06:26.052Z,3.97
2023-03-29T15:09:05.077Z,3.97
2023-03-29T15:11:35.875Z,3.99
2023-03-29T15:14:06.324Z,4.01
2023-03-29T15:16:38.730Z,3.77
2023-03-29T15:19:07.615Z,3.87
2023-03-29T15:21:35.670Z,3.89
2023-03-29T15:24:04.895Z,3.82
2023-03-29T15:26:34.396Z,3.82
2023-03-29T15:29:07.196Z,3.82
2023-03-29T15:31:37.952Z,3.76
2023-03-29T15:34:09.053Z,3.76
2023-03-29T15:36:41.072Z,3.64
2023-03-29T15:39:12.289Z,3.64
2023-03-29T15:41:39.977Z,3.62
2023-03-29T15:44:10.641Z,3.62
2023-03-29T15:46:38.776Z,3.52
2023-03-29T15:49:10.653Z,3.44
2023-03-29T15:51:40.183Z,3.22
2023-03-29T15:54:07.977Z,3.15
2023-03-29T15:56:43.724Z,3.02
2023-03-29T15:59:13.531Z,3.08
2023-03-29T16:01:41.347Z,3.03
2023-03-29T16:04:12.397Z,2.94
2023-03-29T16:06:42.393Z,2.92
2023-03-29T16:09:10.375Z,2.86
2023-03-29T16:11:38.594Z,2.88
2023-03-29T16:14:20.922Z,2.85
2023-03-29T16:16:49.516Z,2.89
2023-03-29T16:19:22.458Z,2.84
2023-03-29T16:21:51.118Z,2.84
2023-03-29T16:24:22.250Z,2.89
2023-03-29T16:26:52.800Z,2.89
2023-03-29T16:29:25.470Z,2.78
2023-03-29T16:31:53.906Z,2.64
2023-03-29T16:34:22.143Z,2.55
2023-03-29T16:36:50.619Z,2.41
2023-03-29T16:39:19.944Z,2.39
2023-03-29T16:41:47.802Z,2.43
2023-03-29T16:44:16.702Z,2.38
2023-03-29T16:46:46.355Z,2.33
2023-03-29T16:49:14.608Z,2.26
2023-03-29T16:51:42.330Z,2.26
2023-03-29T16:54:10.005Z,2.24
2023-03-29T16:56:38.029Z,2.23
2023-03-29T16:59:06.716Z,2.32
2023-03-29T17:01:34.626Z,2.33
2023-03-29T17:04:04.201Z,2.32
2023-03-29T17:06:32.905Z,2.18
2023-03-29T17:09:00.967Z,2.20
2023-03-29T17:11:29.076Z,2.20
2023-03-29T17:13:57.627Z,2.12
2023-03-29T17:16:26.058Z,2.07
2023-03-29T17:18:53.951Z,2.04
2023-03-29T17:21:22.989Z,1.94
2023-03-29T17:23:50.988Z,2.02
2023-03-29T17:26:18.633Z,2.03
2023-03-29T17:28:46.578Z,2.00
2023-03-29T17:31:14.621Z,2.05
2023-03-29T17:33:43.008Z,2.05
2023-03-29T17:36:11.397Z,2.05
2023-03-29T17:38:41.328Z,2.06
2023-03-29T17:41:08.924Z,1.99
2023-03-29T17:43:37.270Z,2.04
2023-03-29T17:46:06.061Z,2.07
2023-03-29T17:48:33.950Z,2.01
2023-03-29T17:51:01.859Z,2.03
2023-03-29T17:53:30.240Z,1.98
2023-03-29T17:55:59.561Z,1.97
2023-03-29T17:58:27.296Z,1.92
2023-03-29T18:00:55.091Z,1.89
2023-03-29T18:03:23.809Z,1.89
2023-03-29T18:05:51.553Z,1.95
2023-03-29T18:08:19.328Z,1.94
2023-03-29T18:10:48.013Z,1.97
2023-03-29T18:13:17.660Z,1.97
2023-03-29T18:15:45.442Z,1.95
2023-03-29T18:18:13.164Z,1.86
2023-03-29T18:20:41.035Z,1.94
2023-03-29T18:23:11.658Z,1.92
2023-03-29T18:25:40.383Z,1.86
2023-03-29T18:28:08.089Z,1.85
2023-03-29T18:30:38.189Z,1.88
2023-03-29T18:33:05.988Z,1.87
2023-03-29T18:35:33.787Z,1.80
2023-03-29T18:38:01.668Z,1.82
2023-03-29T18:40:29.330Z,1.79
2023-03-29T18:42:57.186Z,1.71
2023-03-29T18:45:25.025Z,1.73
2023-03-29T18:47:54.783Z,1.68
2023-03-29T18:50:23.004Z,1.69
2023-03-29T18:52:51.240Z,1.66
2023-03-29T18:55:18.999Z,1.69
2023-03-29T18:57:46.729Z,1.67
2023-03-29T19:00:17.478Z,1.71
2023-03-29T19:02:46.377Z,1.57
2023-03-29T19:05:15.590Z,1.67
2023-03-29T19:07:43.452Z,1.66
2023-03-29T19:10:11.238Z,1.62
2023-03-29T19:12:39.011Z,1.55
2023-03-29T19:15:09.352Z,1.52
2023-03-29T19:17:37.350Z,1.54
2023-03-29T19:20:06.361Z,1.50
2023-03-29T19:22:36.015Z,1.52
2023-03-29T19:25:04.169Z,1.38
2023-03-29T19:27:33.233Z,1.45
2023-03-29T19:30:00.960Z,1.42
2023-03-29T19:32:28.660Z,1.39
2023-03-29T19:35:02.511Z,1.29
2023-03-29T19:37:30.529Z,1.43
2023-03-29T19:40:00.041Z,1.47
2023-03-29T19:42:28.189Z,1.48
2023-03-29T19:44:55.789Z,1.40
2023-03-29T19:47:23.468Z,1.45
2023-03-29T19:49:51.413Z,1.45
2023-03-29T19:52:18.974Z,1.44
2023-03-29T19:54:46.631Z,1.39
2023-03-29T19:57:15.828Z,1.37
2023-03-29T19:59:43.673Z,1.26
2023-03-29T20:02:18.858Z,1.34
2023-03-29T20:04:46.423Z,1.33
2023-03-29T20:07:14.353Z,1.28
2023-03-29T20:09:44.567Z,1.31
2023-03-29T20:12:12.865Z,1.30
2023-03-29T20:14:42.286Z,1.32
2023-03-29T20:17:09.858Z,1.29
2023-03-29T20:19:37.522Z,1.32
2023-03-29T20:22:05.378Z,1.26
2023-03-29T20:24:34.763Z,1.31
2023-03-29T20:27:02.598Z,1.36
2023-03-29T20:29:31.150Z,1.34
2023-03-29T20:32:00.465Z,1.35
2023-03-29T20:34:28.161Z,1.36
2023-03-29T20:36:56.081Z,1.46
2023-03-29T20:39:25.807Z,1.48
2023-03-29T20:41:53.575Z,1.48
2023-03-29T20:44:21.464Z,1.43
2023-03-29T20:46:49.158Z,1.40
2023-03-29T20:49:18.140Z,1.47
2023-03-29T20:51:46.291Z,1.49
2023-03-29T20:54:14.068Z,1.51
2023-03-29T20:56:41.697Z,1.53
2023-03-29T20:59:10.942Z,1.45
2023-03-29T21:01:38.794Z,1.52
2023-03-29T21:04:07.309Z,1.47
2023-03-29T21:06:37.023Z,1.52
2023-03-29T21:09:04.640Z,1.47
2023-03-29T21:11:33.032Z,1.46
2023-03-29T21:14:01.118Z,1.53
2023-03-29T21:16:28.822Z,1.53
2023-03-29T21:18:57.132Z,1.51
2023-03-29T21:21:25.216Z,1.40
2023-03-29T21:23:54.335Z,1.46
2023-03-29T21:26:21.853Z,1.43
2023-03-29T21:28:49.766Z,1.53
2023-03-29T21:31:17.382Z,1.45
2023-03-29T21:33:45.523Z,1.40
2023-03-29T21:36:14.837Z,1.50
2023-03-29T21:38:44.408Z,1.56
2023-03-29T21:41:13.797Z,1.53
2023-03-29T21:43:41.901Z,1.46
2023-03-29T21:46:10.100Z,1.51
2023-03-29T21:48:37.995Z,1.51
2023-03-29T21:51:06.926Z,1.54
2023-03-29T21:53:35.065Z,1.46
2023-03-29T21:56:02.883Z,1.47
2023-03-29T21:58:32.665Z,1.40
2023-03-29T22:01:01.721Z,1.43
2023-03-29T22:03:30.245Z,1.40
2023-03-29T22:05:59.512Z,1.42
2023-03-29T22:08:28.464Z,1.39
2023-03-29T22:10:57.141Z,1.36
2023-03-29T22:13:27.634Z,1.33
2023-03-29T22:15:57.551Z,1.34
2023-03-29T22:18:25.995Z,1.36
2023-03-29T22:21:00.512Z,1.35
2023-03-29T22:23:28.551Z,1.29
2023-03-29T22:25:56.200Z,1.28
2023-03-29T22:28:25.929Z,1.13
2023-03-29T22:30:53.597Z,1.20
2023-03-29T22:33:22.590Z,1.16
2023-03-29T22:35:50.258Z,1.21
2023-03-29T22:38:17.945Z,1.15
2023-03-29T22:40:45.576Z,1.15
2023-03-29T22:43:13.379Z,1.18
2023-03-29T22:45:41.092Z,1.17
2023-03-29T22:48:08.758Z,1.16
2023-03-29T22:50:38.043Z,1.19
2023-03-29T22:53:05.770Z,1.18
2023-03-29T22:55:33.311Z,1.04
2023-03-29T22:58:01.381Z,1.08
2023-03-29T23:00:29.523Z,1.04
2023-03-29T23:02:57.673Z,1.07
2023-03-29T23:05:25.546Z,0.97
2023-03-29T23:07:54.673Z,1.03
2023-03-29T23:10:25.901Z,1.00
2023-03-29T23:12:55.785Z,1.02
2023-03-29T23:15:23.516Z,0.96
2023-03-29T23:17:51.512Z,0.97
2023-03-29T23:20:19.740Z,0.98
2023-03-29T23:22:47.440Z,0.97
2023-03-29T23:25:17.781Z,0.89
2023-03-29T23:27:45.668Z,0.86
2023-03-29T23:30:13.594Z,0.90
2023-03-29T23:32:42.822Z,0.91
2023-03-29T23:35:10.484Z,0.89
2023-03-29T23:37:39.744Z,0.92
2023-03-29T23:40:09.001Z,0.92
2023-03-29T23:42:38.199Z,0.96
2023-03-29T23:45:08.007Z,0.93
2023-03-29T23:47:36.210Z,0.90
2023-03-29T23:50:07.515Z,0.86
2023-03-29T23:52:35.990Z,0.91
2023-03-29T23:55:04.256Z,0.90
2023-03-29T23:57:32.678Z,0.83
